sensor_id;sensor_type;location;lat;lon;timestamp;P1;durP1;ratioP1;P2;durP2;ratioP2
68449;SDS011;55434;39.570;2.652;2022-08-21T00:00:05;7.90;;;1.77;;
68449;SDS011;55434;39.570;2.652;2022-08-21T00:02:35;6.45;;;2.10;;
68449;SDS011;55434;39.570;2.652;2022-08-21T00:05:01;5.18;;;1.67;;
68449;SDS011;55434;39.570;2.652;2022-08-21T00:07:29;6.47;;;1.47;;
68449;SDS011;55434;39.570;2.652;2022-08-21T00:09:57;8.48;;;1.70;;
68449;SDS011;55434;39.570;2.652;2022-08-21T00:12:23;8.00;;;2.28;;
68449;SDS011;55434;39.570;2.652;2022-08-21T00:14:49;4.67;;;1.60;;
68449;SDS011;55434;39.570;2.652;2022-08-21T00:17:15;5.80;;;1.98;;
68449;SDS011;55434;39.570;2.652;2022-08-21T00:19:40;5.20;;;1.33;;
68449;SDS011;55434;39.570;2.652;2022-08-21T00:22:06;5.40;;;1.70;;
68449;SDS011;55434;39.570;2.652;2022-08-21T00:24:31;4.43;;;1.50;;
68449;SDS011;55434;39.570;2.652;2022-08-21T00:26:57;8.13;;;2.47;;
68449;SDS011;55434;39.570;2.652;2022-08-21T00:29:23;6.40;;;1.70;;
68449;SDS011;55434;39.570;2.652;2022-08-21T00:31:50;6.20;;;1.40;;
68449;SDS011;55434;39.570;2.652;2022-08-21T00:34:16;6.37;;;1.80;;
68449;SDS011;55434;39.570;2.652;2022-08-21T00:36:44;6.45;;;1.58;;
68449;SDS011;55434;39.570;2.652;2022-08-21T00:39:12;6.07;;;1.45;;
68449;SDS011;55434;39.570;2.652;2022-08-21T00:41:38;5.05;;;1.55;;
68449;SDS011;55434;39.570;2.652;2022-08-21T00:44:07;6.32;;;1.77;;
68449;SDS011;55434;39.570;2.652;2022-08-21T00:46:36;4.77;;;1.53;;
68449;SDS011;55434;39.570;2.652;2022-08-21T00:49:04;4.70;;;1.50;;
68449;SDS011;55434;39.570;2.652;2022-08-21T00:51:39;8.48;;;1.23;;
68449;SDS011;55434;39.570;2.652;2022-08-21T00:54:08;6.93;;;1.42;;
68449;SDS011;55434;39.570;2.652;2022-08-21T00:56:36;5.32;;;1.42;;
68449;SDS011;55434;39.570;2.652;2022-08-21T00:59:03;7.57;;;1.10;;
68449;SDS011;55434;39.570;2.652;2022-08-21T01:01:29;23.25;;;4.85;;
68449;SDS011;55434;39.570;2.652;2022-08-21T01:03:54;60.90;;;11.97;;
68449;SDS011;55434;39.570;2.652;2022-08-21T01:06:20;13.88;;;2.40;;
68449;SDS011;55434;39.570;2.652;2022-08-21T01:08:49;6.60;;;1.50;;
68449;SDS011;55434;39.570;2.652;2022-08-21T01:11:15;5.43;;;1.50;;
68449;SDS011;55434;39.570;2.652;2022-08-21T01:13:42;4.63;;;1.30;;
68449;SDS011;55434;39.570;2.652;2022-08-21T01:16:11;5.00;;;1.15;;
68449;SDS011;55434;39.570;2.652;2022-08-21T01:18:40;6.55;;;1.65;;
68449;SDS011;55434;39.570;2.652;2022-08-21T01:21:10;6.17;;;1.53;;
68449;SDS011;55434;39.570;2.652;2022-08-21T01:23:39;5.03;;;1.40;;
68449;SDS011;55434;39.570;2.652;2022-08-21T01:26:07;5.68;;;1.33;;
68449;SDS011;55434;39.570;2.652;2022-08-21T01:28:36;4.97;;;1.00;;
68449;SDS011;55434;39.570;2.652;2022-08-21T01:31:19;6.53;;;1.50;;
68449;SDS011;55434;39.570;2.652;2022-08-21T01:33:49;4.40;;;1.30;;
68449;SDS011;55434;39.570;2.652;2022-08-21T01:36:21;6.75;;;1.20;;
68449;SDS011;55434;39.570;2.652;2022-08-21T01:38:52;4.93;;;1.48;;
68449;SDS011;55434;39.570;2.652;2022-08-21T01:41:18;6.22;;;1.50;;
68449;SDS011;55434;39.570;2.652;2022-08-21T01:43:48;4.57;;;1.30;;
68449;SDS011;55434;39.570;2.652;2022-08-21T01:46:15;6.03;;;1.30;;
68449;SDS011;55434;39.570;2.652;2022-08-21T01:48:49;3.83;;;1.13;;
68449;SDS011;55434;39.570;2.652;2022-08-21T01:51:18;5.43;;;1.40;;
68449;SDS011;55434;39.570;2.652;2022-08-21T01:53:44;5.60;;;1.38;;
68449;SDS011;55434;39.570;2.652;2022-08-21T01:56:11;7.67;;;1.13;;
68449;SDS011;55434;39.570;2.652;2022-08-21T02:01:16;4.35;;;1.20;;
68449;SDS011;55434;39.570;2.652;2022-08-21T02:03:41;4.63;;;1.50;;
68449;SDS011;55434;39.570;2.652;2022-08-21T02:06:14;5.43;;;1.30;;
68449;SDS011;55434;39.570;2.652;2022-08-21T02:08:46;6.07;;;1.42;;
68449;SDS011;55434;39.570;2.652;2022-08-21T02:11:13;4.28;;;1.38;;
68449;SDS011;55434;39.570;2.652;2022-08-21T02:13:45;4.70;;;1.30;;
68449;SDS011;55434;39.570;2.652;2022-08-21T02:16:11;5.57;;;1.30;;
68449;SDS011;55434;39.570;2.652;2022-08-21T02:18:41;4.80;;;1.60;;
68449;SDS011;55434;39.570;2.652;2022-08-21T02:21:08;6.93;;;1.45;;
68449;SDS011;55434;39.570;2.652;2022-08-21T02:23:34;6.17;;;1.40;;
68449;SDS011;55434;39.570;2.652;2022-08-21T02:26:04;5.45;;;1.45;;
68449;SDS011;55434;39.570;2.652;2022-08-21T02:28:35;5.95;;;1.75;;
68449;SDS011;55434;39.570;2.652;2022-08-21T02:31:03;4.03;;;1.20;;
68449;SDS011;55434;39.570;2.652;2022-08-21T02:33:30;5.13;;;1.13;;
68449;SDS011;55434;39.570;2.652;2022-08-21T02:36:02;7.07;;;1.93;;
68449;SDS011;55434;39.570;2.652;2022-08-21T02:38:32;5.00;;;1.20;;
68449;SDS011;55434;39.570;2.652;2022-08-21T02:41:05;5.72;;;1.45;;
68449;SDS011;55434;39.570;2.652;2022-08-21T02:43:42;4.35;;;1.30;;
68449;SDS011;55434;39.570;2.652;2022-08-21T02:46:09;4.40;;;1.47;;
68449;SDS011;55434;39.570;2.652;2022-08-21T02:48:36;4.55;;;1.17;;
68449;SDS011;55434;39.570;2.652;2022-08-21T02:51:04;3.78;;;1.25;;
68449;SDS011;55434;39.570;2.652;2022-08-21T02:53:42;3.87;;;1.07;;
68449;SDS011;55434;39.570;2.652;2022-08-21T02:56:11;5.82;;;1.10;;
68449;SDS011;55434;39.570;2.652;2022-08-21T02:58:40;5.05;;;1.40;;
68449;SDS011;55434;39.570;2.652;2022-08-21T03:01:11;5.05;;;1.10;;
68449;SDS011;55434;39.570;2.652;2022-08-21T03:03:39;6.03;;;1.00;;
68449;SDS011;55434;39.570;2.652;2022-08-21T03:06:07;5.63;;;1.20;;
68449;SDS011;55434;39.570;2.652;2022-08-21T03:08:35;6.20;;;1.35;;
68449;SDS011;55434;39.570;2.652;2022-08-21T03:11:03;4.90;;;1.33;;
68449;SDS011;55434;39.570;2.652;2022-08-21T03:13:29;4.78;;;1.17;;
68449;SDS011;55434;39.570;2.652;2022-08-21T03:15:59;6.20;;;1.17;;
68449;SDS011;55434;39.570;2.652;2022-08-21T03:18:26;4.72;;;1.10;;
68449;SDS011;55434;39.570;2.652;2022-08-21T03:20:53;4.93;;;1.25;;
68449;SDS011;55434;39.570;2.652;2022-08-21T03:23:20;5.10;;;1.23;;
68449;SDS011;55434;39.570;2.652;2022-08-21T03:25:51;4.43;;;1.10;;
68449;SDS011;55434;39.570;2.652;2022-08-21T03:28:19;4.03;;;1.10;;
68449;SDS011;55434;39.570;2.652;2022-08-21T03:30:48;5.90;;;1.02;;
68449;SDS011;55434;39.570;2.652;2022-08-21T03:33:20;5.47;;;1.00;;
68449;SDS011;55434;39.570;2.652;2022-08-21T03:35:58;3.57;;;1.00;;
68449;SDS011;55434;39.570;2.652;2022-08-21T03:38:31;4.00;;;1.23;;
68449;SDS011;55434;39.570;2.652;2022-08-21T03:41:06;5.80;;;1.50;;
68449;SDS011;55434;39.570;2.652;2022-08-21T03:43:33;4.50;;;1.10;;
68449;SDS011;55434;39.570;2.652;2022-08-21T03:46:05;4.57;;;1.00;;
68449;SDS011;55434;39.570;2.652;2022-08-21T03:48:32;5.70;;;1.20;;
68449;SDS011;55434;39.570;2.652;2022-08-21T03:51:23;3.88;;;0.93;;
68449;SDS011;55434;39.570;2.652;2022-08-21T03:53:58;6.88;;;1.20;;
68449;SDS011;55434;39.570;2.652;2022-08-21T03:56:25;4.47;;;1.30;;
68449;SDS011;55434;39.570;2.652;2022-08-21T03:58:56;4.80;;;1.30;;
68449;SDS011;55434;39.570;2.652;2022-08-21T04:01:28;4.57;;;1.17;;
68449;SDS011;55434;39.570;2.652;2022-08-21T04:04:03;6.30;;;1.10;;
68449;SDS011;55434;39.570;2.652;2022-08-21T04:06:35;4.82;;;1.40;;
68449;SDS011;55434;39.570;2.652;2022-08-21T04:09:01;7.50;;;1.70;;
68449;SDS011;55434;39.570;2.652;2022-08-21T04:11:30;7.80;;;1.92;;
68449;SDS011;55434;39.570;2.652;2022-08-21T04:14:01;8.30;;;1.10;;
68449;SDS011;55434;39.570;2.652;2022-08-21T04:16:30;3.35;;;0.90;;
68449;SDS011;55434;39.570;2.652;2022-08-21T04:18:57;6.78;;;1.20;;
68449;SDS011;55434;39.570;2.652;2022-08-21T04:24:10;5.25;;;1.17;;
68449;SDS011;55434;39.570;2.652;2022-08-21T04:26:56;3.33;;;1.00;;
68449;SDS011;55434;39.570;2.652;2022-08-21T04:29:24;5.30;;;1.23;;
68449;SDS011;55434;39.570;2.652;2022-08-21T04:31:49;8.70;;;2.00;;
68449;SDS011;55434;39.570;2.652;2022-08-21T04:34:21;5.68;;;1.30;;
68449;SDS011;55434;39.570;2.652;2022-08-21T04:36:49;6.03;;;1.50;;
68449;SDS011;55434;39.570;2.652;2022-08-21T04:39:15;5.23;;;1.23;;
68449;SDS011;55434;39.570;2.652;2022-08-21T04:41:42;7.20;;;1.15;;
68449;SDS011;55434;39.570;2.652;2022-08-21T04:44:09;6.38;;;1.40;;
68449;SDS011;55434;39.570;2.652;2022-08-21T04:46:35;3.77;;;1.00;;
68449;SDS011;55434;39.570;2.652;2022-08-21T04:49:03;7.32;;;1.30;;
68449;SDS011;55434;39.570;2.652;2022-08-21T04:51:33;7.72;;;1.50;;
68449;SDS011;55434;39.570;2.652;2022-08-21T04:54:09;4.15;;;1.20;;
68449;SDS011;55434;39.570;2.652;2022-08-21T04:56:41;6.05;;;1.30;;
68449;SDS011;55434;39.570;2.652;2022-08-21T04:59:16;9.27;;;1.30;;
68449;SDS011;55434;39.570;2.652;2022-08-21T05:01:45;5.68;;;1.10;;
68449;SDS011;55434;39.570;2.652;2022-08-21T05:04:15;5.10;;;1.13;;
68449;SDS011;55434;39.570;2.652;2022-08-21T05:06:43;3.83;;;1.02;;
68449;SDS011;55434;39.570;2.652;2022-08-21T05:09:14;7.72;;;1.30;;
68449;SDS011;55434;39.570;2.652;2022-08-21T05:11:44;3.80;;;0.97;;
68449;SDS011;55434;39.570;2.652;2022-08-21T05:14:13;4.57;;;1.40;;
68449;SDS011;55434;39.570;2.652;2022-08-21T05:16:42;4.22;;;1.15;;
68449;SDS011;55434;39.570;2.652;2022-08-21T05:19:08;7.53;;;1.10;;
68449;SDS011;55434;39.570;2.652;2022-08-21T05:21:35;4.38;;;1.27;;
68449;SDS011;55434;39.570;2.652;2022-08-21T05:24:03;4.23;;;0.87;;
68449;SDS011;55434;39.570;2.652;2022-08-21T05:26:30;4.70;;;0.98;;
68449;SDS011;55434;39.570;2.652;2022-08-21T05:28:58;6.50;;;0.93;;
68449;SDS011;55434;39.570;2.652;2022-08-21T05:31:24;7.03;;;1.07;;
68449;SDS011;55434;39.570;2.652;2022-08-21T05:33:49;5.90;;;1.08;;
68449;SDS011;55434;39.570;2.652;2022-08-21T05:36:17;3.07;;;0.80;;
68449;SDS011;55434;39.570;2.652;2022-08-21T05:38:43;4.10;;;1.00;;
68449;SDS011;55434;39.570;2.652;2022-08-21T05:41:10;5.22;;;1.17;;
68449;SDS011;55434;39.570;2.652;2022-08-21T05:43:39;4.28;;;1.33;;
68449;SDS011;55434;39.570;2.652;2022-08-21T05:46:05;5.43;;;1.07;;
68449;SDS011;55434;39.570;2.652;2022-08-21T05:48:32;9.60;;;1.30;;
68449;SDS011;55434;39.570;2.652;2022-08-21T05:51:03;5.07;;;1.20;;
68449;SDS011;55434;39.570;2.652;2022-08-21T05:53:41;4.50;;;0.93;;
68449;SDS011;55434;39.570;2.652;2022-08-21T05:56:07;5.60;;;1.27;;
68449;SDS011;55434;39.570;2.652;2022-08-21T05:58:34;4.45;;;1.08;;
68449;SDS011;55434;39.570;2.652;2022-08-21T06:01:00;6.10;;;0.95;;
68449;SDS011;55434;39.570;2.652;2022-08-21T06:03:34;5.80;;;1.10;;
68449;SDS011;55434;39.570;2.652;2022-08-21T06:06:03;3.37;;;1.00;;
68449;SDS011;55434;39.570;2.652;2022-08-21T06:08:31;4.88;;;1.10;;
68449;SDS011;55434;39.570;2.652;2022-08-21T06:10:57;6.75;;;1.67;;
68449;SDS011;55434;39.570;2.652;2022-08-21T06:13:26;7.63;;;1.20;;
68449;SDS011;55434;39.570;2.652;2022-08-21T06:16:14;6.05;;;1.10;;
68449;SDS011;55434;39.570;2.652;2022-08-21T06:18:44;5.23;;;1.00;;
68449;SDS011;55434;39.570;2.652;2022-08-21T06:21:12;5.28;;;1.20;;
68449;SDS011;55434;39.570;2.652;2022-08-21T06:23:38;7.05;;;1.38;;
68449;SDS011;55434;39.570;2.652;2022-08-21T06:26:04;5.87;;;1.20;;
68449;SDS011;55434;39.570;2.652;2022-08-21T06:28:31;7.07;;;1.00;;
68449;SDS011;55434;39.570;2.652;2022-08-21T06:30:58;6.82;;;1.30;;
68449;SDS011;55434;39.570;2.652;2022-08-21T06:33:25;7.13;;;1.13;;
68449;SDS011;55434;39.570;2.652;2022-08-21T06:35:52;7.90;;;1.30;;
68449;SDS011;55434;39.570;2.652;2022-08-21T06:38:20;5.43;;;1.10;;
68449;SDS011;55434;39.570;2.652;2022-08-21T06:40:46;4.20;;;1.10;;
68449;SDS011;55434;39.570;2.652;2022-08-21T06:43:15;5.55;;;1.27;;
68449;SDS011;55434;39.570;2.652;2022-08-21T06:45:46;5.60;;;1.23;;
68449;SDS011;55434;39.570;2.652;2022-08-21T06:48:13;4.18;;;1.00;;
68449;SDS011;55434;39.570;2.652;2022-08-21T06:50:39;6.15;;;1.42;;
68449;SDS011;55434;39.570;2.652;2022-08-21T06:53:09;5.57;;;1.17;;
68449;SDS011;55434;39.570;2.652;2022-08-21T06:55:38;6.03;;;1.30;;
68449;SDS011;55434;39.570;2.652;2022-08-21T06:58:04;4.93;;;0.80;;
68449;SDS011;55434;39.570;2.652;2022-08-21T07:00:31;4.18;;;1.00;;
68449;SDS011;55434;39.570;2.652;2022-08-21T07:02:59;4.90;;;1.07;;
68449;SDS011;55434;39.570;2.652;2022-08-21T07:05:25;5.18;;;1.13;;
68449;SDS011;55434;39.570;2.652;2022-08-21T07:08:00;8.88;;;1.30;;
68449;SDS011;55434;39.570;2.652;2022-08-21T07:10:27;6.32;;;1.20;;
68449;SDS011;55434;39.570;2.652;2022-08-21T07:12:55;3.55;;;0.90;;
68449;SDS011;55434;39.570;2.652;2022-08-21T07:15:22;6.40;;;1.00;;
68449;SDS011;55434;39.570;2.652;2022-08-21T07:17:49;7.45;;;1.00;;
68449;SDS011;55434;39.570;2.652;2022-08-21T07:20:31;4.38;;;1.13;;
68449;SDS011;55434;39.570;2.652;2022-08-21T07:22:59;5.00;;;1.05;;
68449;SDS011;55434;39.570;2.652;2022-08-21T07:25:35;5.07;;;1.10;;
68449;SDS011;55434;39.570;2.652;2022-08-21T07:28:15;5.85;;;1.20;;
68449;SDS011;55434;39.570;2.652;2022-08-21T07:30:42;4.18;;;1.13;;
68449;SDS011;55434;39.570;2.652;2022-08-21T07:33:11;6.75;;;1.30;;
68449;SDS011;55434;39.570;2.652;2022-08-21T07:35:42;10.25;;;1.40;;
68449;SDS011;55434;39.570;2.652;2022-08-21T07:38:09;4.73;;;1.30;;
68449;SDS011;55434;39.570;2.652;2022-08-21T07:40:47;6.25;;;1.45;;
68449;SDS011;55434;39.570;2.652;2022-08-21T07:43:19;5.22;;;1.88;;
68449;SDS011;55434;39.570;2.652;2022-08-21T07:45:48;5.53;;;1.58;;
68449;SDS011;55434;39.570;2.652;2022-08-21T07:48:15;5.60;;;1.45;;
68449;SDS011;55434;39.570;2.652;2022-08-21T07:51:07;4.63;;;1.50;;
68449;SDS011;55434;39.570;2.652;2022-08-21T07:53:35;4.82;;;1.30;;
68449;SDS011;55434;39.570;2.652;2022-08-21T07:56:08;4.97;;;1.48;;
68449;SDS011;55434;39.570;2.652;2022-08-21T07:58:36;4.88;;;1.20;;
68449;SDS011;55434;39.570;2.652;2022-08-21T08:01:01;4.33;;;1.40;;
68449;SDS011;55434;39.570;2.652;2022-08-21T08:03:34;4.20;;;1.30;;
68449;SDS011;55434;39.570;2.652;2022-08-21T08:06:00;6.43;;;1.70;;
68449;SDS011;55434;39.570;2.652;2022-08-21T08:08:33;4.33;;;1.20;;
68449;SDS011;55434;39.570;2.652;2022-08-21T08:11:09;4.72;;;1.20;;
68449;SDS011;55434;39.570;2.652;2022-08-21T08:13:45;5.85;;;1.60;;
68449;SDS011;55434;39.570;2.652;2022-08-21T08:16:13;4.20;;;1.33;;
68449;SDS011;55434;39.570;2.652;2022-08-21T08:18:41;4.72;;;1.40;;
68449;SDS011;55434;39.570;2.652;2022-08-21T08:21:09;4.20;;;1.50;;
68449;SDS011;55434;39.570;2.652;2022-08-21T08:23:36;5.43;;;1.40;;
68449;SDS011;55434;39.570;2.652;2022-08-21T08:26:05;4.60;;;1.50;;
68449;SDS011;55434;39.570;2.652;2022-08-21T08:28:32;7.53;;;1.20;;
68449;SDS011;55434;39.570;2.652;2022-08-21T08:31:11;4.93;;;1.35;;
68449;SDS011;55434;39.570;2.652;2022-08-21T08:36:31;5.53;;;1.55;;
68449;SDS011;55434;39.570;2.652;2022-08-21T08:39:03;8.07;;;1.60;;
68449;SDS011;55434;39.570;2.652;2022-08-21T08:41:31;6.05;;;1.60;;
68449;SDS011;55434;39.570;2.652;2022-08-21T08:44:02;5.78;;;1.38;;
68449;SDS011;55434;39.570;2.652;2022-08-21T08:46:32;4.07;;;1.30;;
68449;SDS011;55434;39.570;2.652;2022-08-21T08:49:24;5.25;;;1.10;;
68449;SDS011;55434;39.570;2.652;2022-08-21T08:52:03;3.65;;;1.30;;
68449;SDS011;55434;39.570;2.652;2022-08-21T08:57:45;4.95;;;1.45;;
68449;SDS011;55434;39.570;2.652;2022-08-21T09:00:15;5.67;;;1.30;;
68449;SDS011;55434;39.570;2.652;2022-08-21T09:02:45;3.78;;;1.30;;
68449;SDS011;55434;39.570;2.652;2022-08-21T09:05:25;4.63;;;1.38;;
68449;SDS011;55434;39.570;2.652;2022-08-21T09:10:57;3.53;;;1.23;;
68449;SDS011;55434;39.570;2.652;2022-08-21T09:13:37;3.37;;;0.97;;
68449;SDS011;55434;39.570;2.652;2022-08-21T09:19:05;5.32;;;1.27;;
68449;SDS011;55434;39.570;2.652;2022-08-21T09:22:03;4.75;;;1.63;;
68449;SDS011;55434;39.570;2.652;2022-08-21T09:27:35;4.87;;;1.93;;
68449;SDS011;55434;39.570;2.652;2022-08-21T09:30:02;5.00;;;1.60;;
68449;SDS011;55434;39.570;2.652;2022-08-21T09:32:32;5.25;;;1.60;;
68449;SDS011;55434;39.570;2.652;2022-08-21T09:35:07;6.50;;;1.70;;
68449;SDS011;55434;39.570;2.652;2022-08-21T09:37:50;6.07;;;1.50;;
68449;SDS011;55434;39.570;2.652;2022-08-21T09:45:47;5.72;;;1.48;;
68449;SDS011;55434;39.570;2.652;2022-08-21T09:48:26;4.90;;;1.35;;
68449;SDS011;55434;39.570;2.652;2022-08-21T09:50:52;5.63;;;1.47;;
68449;SDS011;55434;39.570;2.652;2022-08-21T09:53:20;3.42;;;1.38;;
68449;SDS011;55434;39.570;2.652;2022-08-21T09:55:52;5.10;;;1.42;;
68449;SDS011;55434;39.570;2.652;2022-08-21T09:58:39;3.83;;;1.33;;
68449;SDS011;55434;39.570;2.652;2022-08-21T10:01:06;5.13;;;1.43;;
68449;SDS011;55434;39.570;2.652;2022-08-21T10:03:39;4.25;;;1.17;;
68449;SDS011;55434;39.570;2.652;2022-08-21T10:06:06;5.90;;;1.90;;
68449;SDS011;55434;39.570;2.652;2022-08-21T10:08:36;4.83;;;1.60;;
68449;SDS011;55434;39.570;2.652;2022-08-21T10:11:12;4.13;;;1.40;;
68449;SDS011;55434;39.570;2.652;2022-08-21T10:13:47;4.75;;;1.52;;
68449;SDS011;55434;39.570;2.652;2022-08-21T10:24:35;4.05;;;1.30;;
68449;SDS011;55434;39.570;2.652;2022-08-21T10:29:47;4.63;;;1.40;;
68449;SDS011;55434;39.570;2.652;2022-08-21T10:32:41;4.38;;;1.38;;
68449;SDS011;55434;39.570;2.652;2022-08-21T10:40:45;5.27;;;1.57;;
68449;SDS011;55434;39.570;2.652;2022-08-21T10:46:01;3.25;;;1.35;;
68449;SDS011;55434;39.570;2.652;2022-08-21T10:48:35;4.78;;;1.77;;
68449;SDS011;55434;39.570;2.652;2022-08-21T10:51:05;4.97;;;1.42;;
68449;SDS011;55434;39.570;2.652;2022-08-21T10:53:45;7.13;;;2.40;;
68449;SDS011;55434;39.570;2.652;2022-08-21T10:56:17;6.97;;;2.28;;
68449;SDS011;55434;39.570;2.652;2022-08-21T10:58:49;4.85;;;2.53;;
68449;SDS011;55434;39.570;2.652;2022-08-21T11:01:27;5.78;;;3.03;;
68449;SDS011;55434;39.570;2.652;2022-08-21T11:04:11;4.50;;;2.70;;
68449;SDS011;55434;39.570;2.652;2022-08-21T11:06:37;5.30;;;2.80;;
68449;SDS011;55434;39.570;2.652;2022-08-21T11:09:12;4.30;;;2.10;;
68449;SDS011;55434;39.570;2.652;2022-08-21T11:11:47;6.13;;;3.33;;
68449;SDS011;55434;39.570;2.652;2022-08-21T11:14:29;4.97;;;3.33;;
68449;SDS011;55434;39.570;2.652;2022-08-21T11:17:05;6.10;;;3.75;;
68449;SDS011;55434;39.570;2.652;2022-08-21T11:22:28;6.82;;;3.03;;
68449;SDS011;55434;39.570;2.652;2022-08-21T11:25:23;7.38;;;4.18;;
68449;SDS011;55434;39.570;2.652;2022-08-21T11:30:34;6.88;;;3.85;;
68449;SDS011;55434;39.570;2.652;2022-08-21T11:38:42;5.88;;;3.72;;
68449;SDS011;55434;39.570;2.652;2022-08-21T11:43:54;6.05;;;4.25;;
68449;SDS011;55434;39.570;2.652;2022-08-21T11:52:06;7.05;;;4.35;;
68449;SDS011;55434;39.570;2.652;2022-08-21T11:54:37;5.50;;;4.38;;
68449;SDS011;55434;39.570;2.652;2022-08-21T11:57:20;6.65;;;4.65;;
68449;SDS011;55434;39.570;2.652;2022-08-21T12:02:34;6.07;;;3.28;;
68449;SDS011;55434;39.570;2.652;2022-08-21T12:05:04;6.82;;;3.70;;
68449;SDS011;55434;39.570;2.652;2022-08-21T12:10:08;4.72;;;2.35;;
68449;SDS011;55434;39.570;2.652;2022-08-21T12:12:37;5.53;;;2.40;;
68449;SDS011;55434;39.570;2.652;2022-08-21T12:17:37;6.57;;;3.63;;
68449;SDS011;55434;39.570;2.652;2022-08-21T12:20:57;8.23;;;3.30;;
68449;SDS011;55434;39.570;2.652;2022-08-21T12:25:41;5.53;;;3.30;;
68449;SDS011;55434;39.570;2.652;2022-08-21T12:28:28;7.55;;;3.10;;
68449;SDS011;55434;39.570;2.652;2022-08-21T12:30:56;6.57;;;3.38;;
68449;SDS011;55434;39.570;2.652;2022-08-21T12:33:38;5.27;;;3.50;;
68449;SDS011;55434;39.570;2.652;2022-08-21T12:41:24;6.68;;;3.60;;
68449;SDS011;55434;39.570;2.652;2022-08-21T12:46:43;6.77;;;4.23;;
68449;SDS011;55434;39.570;2.652;2022-08-21T12:49:16;11.98;;;4.05;;
68449;SDS011;55434;39.570;2.652;2022-08-21T12:51:51;5.00;;;3.65;;
68449;SDS011;55434;39.570;2.652;2022-08-21T12:54:22;5.85;;;3.60;;
68449;SDS011;55434;39.570;2.652;2022-08-21T12:56:56;6.97;;;3.45;;
68449;SDS011;55434;39.570;2.652;2022-08-21T12:59:27;7.00;;;3.70;;
68449;SDS011;55434;39.570;2.652;2022-08-21T13:01:56;5.78;;;3.35;;
68449;SDS011;55434;39.570;2.652;2022-08-21T13:04:35;8.25;;;4.20;;
68449;SDS011;55434;39.570;2.652;2022-08-21T13:07:05;5.70;;;3.28;;
68449;SDS011;55434;39.570;2.652;2022-08-21T13:09:36;5.53;;;3.03;;
68449;SDS011;55434;39.570;2.652;2022-08-21T13:12:07;8.33;;;3.63;;
68449;SDS011;55434;39.570;2.652;2022-08-21T13:14:35;6.90;;;3.53;;
68449;SDS011;55434;39.570;2.652;2022-08-21T13:17:05;7.40;;;3.45;;
68449;SDS011;55434;39.570;2.652;2022-08-21T13:19:31;7.63;;;3.42;;
68449;SDS011;55434;39.570;2.652;2022-08-21T13:22:00;6.13;;;3.10;;
68449;SDS011;55434;39.570;2.652;2022-08-21T13:24:27;6.33;;;3.07;;
68449;SDS011;55434;39.570;2.652;2022-08-21T13:26:56;8.25;;;3.90;;
68449;SDS011;55434;39.570;2.652;2022-08-21T13:29:27;6.05;;;3.28;;
68449;SDS011;55434;39.570;2.652;2022-08-21T13:32:05;6.38;;;3.47;;
68449;SDS011;55434;39.570;2.652;2022-08-21T13:34:35;6.70;;;3.95;;
68449;SDS011;55434;39.570;2.652;2022-08-21T13:37:03;5.30;;;3.77;;
68449;SDS011;55434;39.570;2.652;2022-08-21T13:39:30;7.55;;;3.38;;
68449;SDS011;55434;39.570;2.652;2022-08-21T13:41:58;7.13;;;3.22;;
68449;SDS011;55434;39.570;2.652;2022-08-21T13:44:36;10.20;;;2.95;;
68449;SDS011;55434;39.570;2.652;2022-08-21T13:47:06;6.47;;;3.20;;
68449;SDS011;55434;39.570;2.652;2022-08-21T13:49:34;6.17;;;3.37;;
68449;SDS011;55434;39.570;2.652;2022-08-21T13:52:12;5.07;;;2.70;;
68449;SDS011;55434;39.570;2.652;2022-08-21T13:57:27;7.13;;;2.87;;
68449;SDS011;55434;39.570;2.652;2022-08-21T14:02:37;4.85;;;2.33;;
68449;SDS011;55434;39.570;2.652;2022-08-21T14:05:05;5.15;;;2.15;;
68449;SDS011;55434;39.570;2.652;2022-08-21T14:07:33;5.90;;;2.70;;
68449;SDS011;55434;39.570;2.652;2022-08-21T14:10:05;7.10;;;2.88;;
68449;SDS011;55434;39.570;2.652;2022-08-21T14:13:23;7.68;;;2.28;;
68449;SDS011;55434;39.570;2.652;2022-08-21T14:15:31;6.75;;;2.15;;
68449;SDS011;55434;39.570;2.652;2022-08-21T14:18:13;5.75;;;1.83;;
68449;SDS011;55434;39.570;2.652;2022-08-21T14:20:41;5.88;;;2.75;;
68449;SDS011;55434;39.570;2.652;2022-08-21T14:23:07;4.70;;;2.10;;
68449;SDS011;55434;39.570;2.652;2022-08-21T14:25:40;5.97;;;2.40;;
68449;SDS011;55434;39.570;2.652;2022-08-21T14:28:26;5.60;;;2.07;;
68449;SDS011;55434;39.570;2.652;2022-08-21T14:31:19;7.20;;;2.53;;
68449;SDS011;55434;39.570;2.652;2022-08-21T14:33:46;5.47;;;2.42;;
68449;SDS011;55434;39.570;2.652;2022-08-21T14:36:11;5.10;;;2.13;;
68449;SDS011;55434;39.570;2.652;2022-08-21T14:38:38;4.83;;;1.83;;
68449;SDS011;55434;39.570;2.652;2022-08-21T14:41:18;6.05;;;3.10;;
68449;SDS011;55434;39.570;2.652;2022-08-21T14:43:47;8.25;;;2.80;;
68449;SDS011;55434;39.570;2.652;2022-08-21T14:46:14;6.78;;;3.00;;
68449;SDS011;55434;39.570;2.652;2022-08-21T14:48:48;5.70;;;2.43;;
68449;SDS011;55434;39.570;2.652;2022-08-21T14:51:14;5.63;;;2.60;;
68449;SDS011;55434;39.570;2.652;2022-08-21T14:53:40;7.38;;;2.33;;
68449;SDS011;55434;39.570;2.652;2022-08-21T14:56:06;5.03;;;3.00;;
68449;SDS011;55434;39.570;2.652;2022-08-21T14:58:35;5.72;;;2.72;;
68449;SDS011;55434;39.570;2.652;2022-08-21T15:01:03;6.75;;;3.47;;
68449;SDS011;55434;39.570;2.652;2022-08-21T15:03:31;6.80;;;3.35;;
68449;SDS011;55434;39.570;2.652;2022-08-21T15:05:57;7.85;;;3.30;;
68449;SDS011;55434;39.570;2.652;2022-08-21T15:08:23;6.00;;;3.10;;
68449;SDS011;55434;39.570;2.652;2022-08-21T15:10:49;6.13;;;3.20;;
68449;SDS011;55434;39.570;2.652;2022-08-21T15:13:16;5.15;;;3.30;;
68449;SDS011;55434;39.570;2.652;2022-08-21T15:15:43;6.70;;;3.38;;
68449;SDS011;55434;39.570;2.652;2022-08-21T15:18:11;5.43;;;3.40;;
68449;SDS011;55434;39.570;2.652;2022-08-21T15:20:36;7.18;;;3.25;;
68449;SDS011;55434;39.570;2.652;2022-08-21T15:23:03;7.40;;;3.83;;
68449;SDS011;55434;39.570;2.652;2022-08-21T15:25:30;5.30;;;3.58;;
68449;SDS011;55434;39.570;2.652;2022-08-21T15:27:56;6.22;;;3.58;;
68449;SDS011;55434;39.570;2.652;2022-08-21T15:30:21;7.43;;;2.58;;
68449;SDS011;55434;39.570;2.652;2022-08-21T15:32:47;7.23;;;3.27;;
68449;SDS011;55434;39.570;2.652;2022-08-21T15:35:15;5.70;;;3.50;;
68449;SDS011;55434;39.570;2.652;2022-08-21T15:37:40;6.15;;;3.13;;
68449;SDS011;55434;39.570;2.652;2022-08-21T15:40:06;6.05;;;2.78;;
68449;SDS011;55434;39.570;2.652;2022-08-21T15:42:33;6.13;;;3.47;;
68449;SDS011;55434;39.570;2.652;2022-08-21T15:44:59;6.03;;;3.10;;
68449;SDS011;55434;39.570;2.652;2022-08-21T15:47:27;7.60;;;3.28;;
68449;SDS011;55434;39.570;2.652;2022-08-21T15:49:55;7.22;;;4.03;;
68449;SDS011;55434;39.570;2.652;2022-08-21T15:52:21;6.93;;;3.27;;
68449;SDS011;55434;39.570;2.652;2022-08-21T15:54:48;6.68;;;3.15;;
68449;SDS011;55434;39.570;2.652;2022-08-21T15:57:15;5.40;;;2.67;;
68449;SDS011;55434;39.570;2.652;2022-08-21T15:59:45;6.35;;;3.55;;
68449;SDS011;55434;39.570;2.652;2022-08-21T16:02:26;6.93;;;3.58;;
68449;SDS011;55434;39.570;2.652;2022-08-21T16:04:55;7.38;;;3.30;;
68449;SDS011;55434;39.570;2.652;2022-08-21T16:07:21;5.57;;;3.60;;
68449;SDS011;55434;39.570;2.652;2022-08-21T16:09:47;7.80;;;3.20;;
68449;SDS011;55434;39.570;2.652;2022-08-21T16:12:17;6.10;;;3.27;;
68449;SDS011;55434;39.570;2.652;2022-08-21T16:14:47;5.53;;;2.80;;
68449;SDS011;55434;39.570;2.652;2022-08-21T16:17:14;8.25;;;3.55;;
68449;SDS011;55434;39.570;2.652;2022-08-21T16:19:40;6.70;;;3.17;;
68449;SDS011;55434;39.570;2.652;2022-08-21T16:22:06;6.13;;;2.17;;
68449;SDS011;55434;39.570;2.652;2022-08-21T16:24:31;7.03;;;2.73;;
68449;SDS011;55434;39.570;2.652;2022-08-21T16:26:57;6.83;;;2.93;;
68449;SDS011;55434;39.570;2.652;2022-08-21T16:29:22;5.88;;;2.20;;
68449;SDS011;55434;39.570;2.652;2022-08-21T16:31:48;5.97;;;2.40;;
68449;SDS011;55434;39.570;2.652;2022-08-21T16:34:15;6.15;;;3.10;;